Time;durP1;ratioP1;P1;durP2;ratioP2;P2;SDS_P1;SDS_P2;PMS_P1;PMS_P2;Temp;Humidity;BMP_temperature;BMP_pressure;BME280_temperature;BME280_humidity;BME280_pressure;Samples;Min_cycle;Max_cycle;Signal;HPM_P1;HPM_P2
2022/05/13 00:01:19;;;;;;;9.80;8.70;;;19.20;99.90;;;;;;5033338;28;20474;-87
2022/05/13 00:03:46;;;;;;;12.60;9.13;;;19.20;99.90;;;;;;5038888;28;20497;-85
2022/05/13 00:06:15;;;;;;;9.40;7.87;;;19.20;99.90;;;;;;5024828;28;20454;-87
2022/05/13 00:08:42;;;;;;;9.70;8.70;;;19.20;99.90;;;;;;5018729;28;20442;-88
2022/05/13 00:11:10;;;;;;;10.20;8.67;;;19.20;99.90;;;;;;5018337;28;20454;-87
2022/05/13 00:13:38;;;;;;;10.43;8.30;;;19.20;99.90;;;;;;5018083;28;20447;-87
2022/05/13 00:16:06;;;;;;;11.60;8.60;;;19.20;99.90;;;;;;5018932;28;20489;-87
2022/05/13 00:18:33;;;;;;;8.70;7.80;;;19.20;99.90;;;;;;5019798;28;20465;-87
2022/05/13 00:21:01;;;;;;;10.30;8.87;;;19.30;99.90;;;;;;5018496;28;20555;-89
2022/05/13 00:23:32;;;;;;;14.10;10.90;;;19.30;99.90;;;;;;5018353;28;20451;-87
2022/05/13 00:25:59;;;;;;;12.40;9.10;;;19.30;99.90;;;;;;5019693;28;20469;-87
2022/05/13 00:28:26;;;;;;;12.73;10.03;;;19.20;99.90;;;;;;5031723;28;20431;-87
2022/05/13 00:30:54;;;;;;;10.37;8.73;;;19.30;99.90;;;;;;5031500;28;20485;-88
2022/05/13 00:33:22;;;;;;;11.23;10.03;;;19.20;99.90;;;;;;5018019;28;20794;-87
2022/05/13 00:35:49;;;;;;;14.63;9.57;;;19.20;99.90;;;;;;5018111;28;20482;-88
2022/05/13 00:38:16;;;;;;;11.27;9.50;;;19.30;99.90;;;;;;5019705;28;20884;-87
2022/05/13 00:40:46;;;;;;;15.30;10.37;;;19.10;99.90;;;;;;5017630;28;20449;-87
2022/05/13 00:43:35;;;;;;;11.40;9.10;;;19.10;99.90;;;;;;5018188;28;20482;-88
2022/05/13 00:46:03;;;;;;;11.10;9.97;;;19.10;99.90;;;;;;5016940;28;20512;-88
2022/05/13 00:48:30;;;;;;;11.10;9.10;;;19.00;99.90;;;;;;5017003;28;20521;-88
2022/05/13 00:50:58;;;;;;;13.30;9.70;;;19.00;99.90;;;;;;5018831;28;20455;-88
2022/05/13 00:53:27;;;;;;;10.67;9.50;;;19.00;99.90;;;;;;5036269;28;20450;-88
2022/05/13 00:55:55;;;;;;;11.40;8.63;;;19.00;99.90;;;;;;5033352;28;20475;-88
2022/05/13 00:58:24;;;;;;;11.63;9.93;;;19.00;99.90;;;;;;5024509;28;20861;-88
2022/05/13 01:00:52;;;;;;;10.30;9.20;;;19.20;99.90;;;;;;5028121;28;20493;-87
2022/05/13 01:03:20;;;;;;;10.87;9.40;;;19.20;99.90;;;;;;5022211;28;20477;-87
2022/05/13 01:05:53;;;;;;;13.20;9.77;;;19.20;99.90;;;;;;5019779;28;20469;-87
2022/05/13 01:08:21;;;;;;;11.63;8.53;;;19.10;99.90;;;;;;5019571;28;20462;-88
2022/05/13 01:10:49;;;;;;;11.07;9.37;;;19.10;99.90;;;;;;5020718;28;20458;-88
2022/05/13 01:13:23;;;;;;;11.43;9.43;;;19.00;99.90;;;;;;5039595;28;20423;-86
2022/05/13 01:15:51;;;;;;;9.80;8.80;;;19.10;99.90;;;;;;5039625;28;20470;-86
2022/05/13 01:18:27;;;;;;;15.40;10.13;;;19.20;99.90;;;;;;5019380;28;20534;-88
2022/05/13 01:20:55;;;;;;;11.57;8.50;;;19.10;99.90;;;;;;5018858;28;20911;-88
2022/05/13 01:23:26;;;;;;;10.77;9.30;;;19.10;99.90;;;;;;5039349;28;20522;-87
2022/05/13 01:25:56;;;;;;;11.07;9.97;;;19.10;99.90;;;;;;5037316;28;20430;-87
2022/05/13 01:28:29;;;;;;;11.30;10.20;;;19.10;99.90;;;;;;5018060;28;20931;-87
2022/05/13 01:30:59;;;;;;;11.40;10.30;;;19.00;99.90;;;;;;5017394;28;20903;-89
2022/05/13 01:33:30;;;;;;;9.63;8.63;;;19.00;99.90;;;;;;5016539;28;20502;-87
2022/05/13 01:36:01;;;;;;;12.23;9.80;;;19.00;99.90;;;;;;5016936;28;20546;-88
2022/05/13 01:38:33;;;;;;;15.17;9.83;;;19.10;99.90;;;;;;5019107;28;20521;-87
2022/05/13 01:41:01;;;;;;;11.27;10.10;;;19.10;99.90;;;;;;5018845;28;20469;-87
2022/05/13 01:43:28;;;;;;;13.93;11.20;;;19.00;99.90;;;;;;5018242;28;20466;-87
2022/05/13 01:45:57;;;;;;;13.50;10.60;;;18.90;99.90;;;;;;5018037;28;20458;-87
2022/05/13 01:48:26;;;;;;;13.57;10.80;;;18.80;99.90;;;;;;5020736;28;20499;-87
2022/05/13 01:50:53;;;;;;;12.73;10.83;;;18.80;99.90;;;;;;5016434;28;20438;-87
2022/05/13 01:53:20;;;;;;;12.70;10.17;;;18.80;99.90;;;;;;5017414;28;20438;-88
2022/05/13 01:55:49;;;;;;;11.63;10.40;;;18.90;99.90;;;;;;5017044;28;20494;-87
2022/05/13 01:58:18;;;;;;;11.93;10.50;;;18.80;99.90;;;;;;5016661;28;20462;-88
2022/05/13 02:00:47;;;;;;;10.83;9.67;;;18.60;99.90;;;;;;5016829;28;20546;-87
2022/05/13 02:06:04;;;;;;;13.00;10.57;;;18.50;99.90;;;;;;5035446;22;20553;-86
2022/05/13 02:08:36;;;;;;;13.00;9.77;;;18.50;99.90;;;;;;5021685;28;20526;-88
2022/05/13 02:11:05;;;;;;;9.40;8.13;;;18.50;99.90;;;;;;5016215;28;20854;-86
2022/05/13 02:13:32;;;;;;;11.03;8.63;;;18.50;99.90;;;;;;5015818;28;20485;-86
2022/05/13 02:15:59;;;;;;;13.23;9.37;;;18.50;99.90;;;;;;5016377;28;20494;-86
2022/05/13 02:18:26;;;;;;;11.07;9.00;;;18.50;99.90;;;;;;5016182;28;20486;-86
2022/05/13 02:20:55;;;;;;;13.07;9.70;;;18.40;99.90;;;;;;5015252;28;20448;-86
2022/05/13 02:23:22;;;;;;;11.10;9.27;;;18.30;99.90;;;;;;5020383;28;20460;-87
2022/05/13 02:25:50;;;;;;;11.70;10.50;;;18.30;99.90;;;;;;5029005;28;20481;-87
2022/05/13 02:28:19;;;;;;;13.87;11.43;;;18.50;99.90;;;;;;5028247;28;20438;-87
2022/05/13 02:30:46;;;;;;;13.47;9.43;;;18.20;99.90;;;;;;5022423;28;20482;-87
2022/05/13 02:33:13;;;;;;;14.23;10.20;;;18.10;99.90;;;;;;5018661;28;20417;-87
2022/05/13 02:35:40;;;;;;;14.67;9.80;;;18.10;99.90;;;;;;5025461;28;20993;-86
2022/05/13 02:38:06;;;;;;;13.30;10.17;;;18.00;99.90;;;;;;5021606;28;20464;-86
2022/05/13 02:43:19;;;;;;;10.53;9.10;;;18.20;99.90;;;;;;5015423;28;20485;-87
2022/05/13 02:45:46;;;;;;;11.23;8.37;;;18.10;99.90;;;;;;5021002;28;20553;-87
2022/05/13 02:48:13;;;;;;;13.30;9.30;;;18.10;99.90;;;;;;5018672;28;20545;-87
2022/05/13 02:50:40;;;;;;;11.37;8.23;;;18.10;99.90;;;;;;5015245;28;20465;-87
2022/05/13 02:53:07;;;;;;;9.60;7.93;;;18.00;99.90;;;;;;5027202;28;20438;-87
2022/05/13 02:55:35;;;;;;;11.53;9.33;;;17.90;99.90;;;;;;5037117;28;20478;-86
2022/05/13 02:58:02;;;;;;;14.60;8.47;;;18.00;99.90;;;;;;5030599;28;20520;-87
2022/05/13 03:00:30;;;;;;;11.17;8.77;;;18.00;99.90;;;;;;5017236;28;20521;-87
2022/05/13 03:02:57;;;;;;;10.67;7.90;;;18.00;99.90;;;;;;5014823;28;20486;-86
2022/05/13 03:05:24;;;;;;;10.67;7.90;;;18.00;99.90;;;;;;5020684;28;20481;-87
2022/05/13 03:07:53;;;;;;;8.87;6.77;;;18.00;99.90;;;;;;5021991;28;20502;-87
2022/05/13 03:10:20;;;;;;;11.50;7.53;;;17.90;99.90;;;;;;5028934;28;20722;-87
2022/05/13 03:12:47;;;;;;;11.20;7.90;;;17.90;99.90;;;;;;5019635;28;20553;-87
2022/05/13 03:15:14;;;;;;;10.63;7.53;;;18.00;99.90;;;;;;5019080;28;21048;-86
2022/05/13 03:17:43;;;;;;;9.27;7.20;;;18.00;99.90;;;;;;5019151;28;20454;-87
2022/05/13 03:20:14;;;;;;;9.33;8.33;;;18.10;99.90;;;;;;5018921;28;20527;-87
2022/05/13 03:22:41;;;;;;;10.93;8.93;;;18.10;99.90;;;;;;5018488;28;20462;-87
2022/05/13 03:25:09;;;;;;;10.90;7.80;;;18.10;99.90;;;;;;5018406;28;20837;-87
2022/05/13 03:27:36;;;;;;;13.97;11.03;;;18.20;99.90;;;;;;5017895;28;20454;-88
2022/05/13 03:30:03;;;;;;;14.43;8.57;;;18.20;99.90;;;;;;5017655;28;20541;-87
2022/05/13 03:32:30;;;;;;;13.70;7.87;;;18.10;99.90;;;;;;5017690;28;20438;-87
2022/05/13 03:34:59;;;;;;;12.37;9.07;;;18.00;99.90;;;;;;5018015;28;20470;-87
2022/05/13 03:37:26;;;;;;;17.73;8.23;;;18.00;99.90;;;;;;5018103;28;20460;-87
2022/05/13 03:39:53;;;;;;;9.90;7.90;;;17.90;99.90;;;;;;5023566;28;20433;-87
2022/05/13 03:42:22;;;;;;;12.90;8.50;;;17.90;99.90;;;;;;5021183;28;20439;-87
2022/05/13 03:44:49;;;;;;;11.27;8.53;;;17.90;99.90;;;;;;5017948;28;20466;-87
2022/05/13 03:47:16;;;;;;;12.50;8.10;;;17.90;99.90;;;;;;5018711;28;20451;-87
2022/05/13 03:49:43;;;;;;;9.53;7.60;;;18.00;99.90;;;;;;5018514;28;20481;-87
2022/05/13 03:52:12;;;;;;;11.67;7.73;;;18.00;99.90;;;;;;5024466;28;20449;-87
2022/05/13 03:54:39;;;;;;;11.67;8.30;;;18.00;99.90;;;;;;5037586;28;20521;-87
2022/05/13 03:57:07;;;;;;;11.50;8.13;;;18.00;99.90;;;;;;5036226;28;20474;-87
2022/05/13 03:59:34;;;;;;;12.90;9.40;;;18.00;99.90;;;;;;5025386;28;20449;-87
2022/05/13 04:02:01;;;;;;;14.50;8.53;;;18.00;99.90;;;;;;5021524;28;20454;-87
2022/05/13 04:04:29;;;;;;;10.30;9.00;;;18.00;99.90;;;;;;5019757;28;20494;-87
2022/05/13 04:09:42;;;;;;;11.67;8.97;;;17.90;99.90;;;;;;5023180;28;20405;-87
2022/05/13 04:17:41;;;;;;;12.13;9.03;;;18.00;99.90;;;;;;5022836;28;20962;-85
2022/05/13 04:20:08;;;;;;;14.00;9.53;;;18.00;99.90;;;;;;5019438;28;20505;-86
2022/05/13 04:22:35;;;;;;;9.80;8.10;;;18.00;99.90;;;;;;5018985;28;20450;-86
2022/05/13 04:25:04;;;;;;;10.23;8.23;;;18.10;99.90;;;;;;5017297;28;20484;-86
2022/05/13 04:27:31;;;;;;;11.20;7.93;;;18.00;99.90;;;;;;5021426;28;20461;-86
2022/05/13 04:29:57;;;;;;;9.70;7.13;;;18.00;99.90;;;;;;5029701;28;20522;-87
2022/05/13 04:32:24;;;;;;;14.03;8.60;;;18.10;99.90;;;;;;5031866;28;20477;-87
2022/05/13 04:34:51;;;;;;;17.97;8.60;;;18.10;99.90;;;;;;5039375;28;20441;-87
2022/05/13 04:37:18;;;;;;;12.43;7.57;;;18.10;99.90;;;;;;5039060;28;20582;-87
2022/05/13 04:39:45;;;;;;;11.93;8.87;;;18.20;99.90;;;;;;5033783;28;20438;-87
2022/05/13 04:44:58;;;;;;;13.50;9.30;;;18.10;99.90;;;;;;5026875;28;20473;-87
2022/05/13 04:50:10;;;;;;;10.23;8.33;;;18.10;99.90;;;;;;5017266;28;20473;-87
2022/05/13 04:52:37;;;;;;;10.60;8.07;;;18.10;99.90;;;;;;5017218;28;20537;-88
2022/05/13 04:55:04;;;;;;;12.87;8.20;;;18.20;99.90;;;;;;5016496;28;20991;-87
2022/05/13 04:57:33;;;;;;;14.00;8.90;;;18.20;99.90;;;;;;5016737;28;20564;-87
2022/05/13 04:59:59;;;;;;;10.13;8.90;;;18.20;99.90;;;;;;5016611;28;20497;-87
2022/05/13 05:02:28;;;;;;;9.70;7.93;;;18.20;99.90;;;;;;5016981;28;20470;-88
2022/05/13 05:04:55;;;;;;;13.13;8.43;;;18.20;99.90;;;;;;5015572;28;20486;-88
2022/05/13 05:07:21;;;;;;;13.53;8.43;;;18.20;99.90;;;;;;5016445;28;20457;-87
2022/05/13 05:09:48;;;;;;;10.50;9.27;;;18.20;99.90;;;;;;5016282;28;20541;-87
2022/05/13 05:12:15;;;;;;;12.93;8.83;;;18.20;99.90;;;;;;5016444;28;20457;-87
2022/05/13 05:14:44;;;;;;;12.00;8.80;;;18.20;99.90;;;;;;5016185;28;20523;-88
2022/05/13 05:17:11;;;;;;;25.10;10.00;;;18.20;99.90;;;;;;5016191;28;21010;-88
2022/05/13 05:19:38;;;;;;;11.83;8.40;;;18.10;99.90;;;;;;5016219;28;20546;-88
2022/05/13 05:22:07;;;;;;;11.23;8.20;;;18.10;99.90;;;;;;5016824;28;21001;-87
2022/05/13 05:24:34;;;;;;;9.03;7.90;;;18.10;99.90;;;;;;5017511;28;20917;-87
2022/05/13 05:27:01;;;;;;;12.63;8.67;;;18.10;99.90;;;;;;5021891;28;20447;-87
2022/05/13 05:29:32;;;;;;;11.93;8.70;;;18.10;99.90;;;;;;5019272;28;20940;-86
2022/05/13 05:32:00;;;;;;;10.00;7.70;;;18.10;99.90;;;;;;5023860;28;20443;-86
2022/05/13 05:34:29;;;;;;;8.87;7.43;;;18.10;99.90;;;;;;5018323;28;20498;-87
2022/05/13 05:36:56;;;;;;;9.30;6.90;;;18.10;99.90;;;;;;5026257;28;20486;-87
2022/05/13 05:39:23;;;;;;;10.10;8.30;;;18.10;99.90;;;;;;5032572;28;20471;-87
2022/05/13 05:41:51;;;;;;;8.33;7.50;;;18.20;99.90;;;;;;5017286;28;20473;-88
2022/05/13 05:44:18;;;;;;;11.27;7.57;;;18.20;99.90;;;;;;5019909;28;20483;-88
2022/05/13 05:46:45;;;;;;;10.00;7.27;;;18.40;99.90;;;;;;5017225;28;20454;-88
2022/05/13 05:49:13;;;;;;;11.47;7.77;;;18.50;99.90;;;;;;5019095;28;20529;-86
2022/05/13 05:51:41;;;;;;;11.10;7.90;;;18.40;99.90;;;;;;5018639;28;20498;-87
2022/05/13 05:57:17;;;;;;;10.80;8.33;;;18.40;99.90;;;;;;4989954;28;20507;-87
2022/05/13 05:59:45;;;;;;;9.50;7.87;;;18.50;99.90;;;;;;4976361;28;20475;-87
2022/05/13 06:02:13;;;;;;;12.60;8.00;;;18.40;99.90;;;;;;4997840;28;21003;-87
2022/05/13 06:04:42;;;;;;;13.23;8.10;;;18.40;99.90;;;;;;5019555;28;20524;-87
2022/05/13 06:07:12;;;;;;;12.17;8.00;;;18.40;99.90;;;;;;5024148;28;20817;-88
2022/05/13 06:09:40;;;;;;;10.33;7.67;;;18.30;99.90;;;;;;5016223;28;20565;-88
2022/05/13 06:12:10;;;;;;;12.23;8.03;;;18.30;99.90;;;;;;5016527;28;20450;-87
2022/05/13 06:14:40;;;;;;;9.33;7.50;;;18.30;99.90;;;;;;5017375;28;21019;-88
2022/05/13 06:17:10;;;;;;;10.93;7.73;;;18.30;99.90;;;;;;5034754;28;20530;-88
2022/05/13 06:19:39;;;;;;;11.50;8.20;;;18.30;99.90;;;;;;5031366;28;20427;-88
2022/05/13 06:23:05;;;;;;;10.90;7.40;;;18.30;99.90;;;;;;5020531;28;20478;-88
2022/05/13 06:25:38;;;;;;;9.67;7.27;;;18.40;99.90;;;;;;5004696;28;20850;-89
2022/05/13 06:28:10;;;;;;;10.57;8.57;;;18.30;99.90;;;;;;5032685;28;20415;-88
2022/05/13 06:30:43;;;;;;;10.30;7.33;;;18.40;99.90;;;;;;5035829;28;20427;-87
2022/05/13 06:33:10;;;;;;;9.10;6.00;;;18.50;99.90;;;;;;5025566;28;20454;-88
2022/05/13 06:35:38;;;;;;;9.70;5.90;;;18.60;99.90;;;;;;5019235;28;20458;-89
2022/05/13 06:38:05;;;;;;;10.17;6.37;;;18.90;99.90;;;;;;5021417;28;20489;-89
2022/05/13 06:40:35;;;;;;;10.03;7.07;;;18.80;99.90;;;;;;5017324;28;20507;-88
2022/05/13 06:43:06;;;;;;;10.73;7.20;;;18.80;99.90;;;;;;5016263;28;20497;-89
2022/05/13 06:45:33;;;;;;;13.90;6.80;;;18.80;99.90;;;;;;5018351;28;20548;-88
2022/05/13 06:48:05;;;;;;;11.03;7.30;;;18.90;99.90;;;;;;5018382;28;20592;-89
2022/05/13 06:50:32;;;;;;;9.17;5.80;;;19.10;99.90;;;;;;5019143;28;20435;-88
2022/05/13 06:52:59;;;;;;;10.30;6.90;;;19.00;99.90;;;;;;5021487;28;20807;-88
2022/05/13 06:55:29;;;;;;;15.30;6.80;;;19.10;99.90;;;;;;5021700;28;20486;-88
2022/05/13 06:57:58;;;;;;;10.20;6.17;;;19.30;99.90;;;;;;5023005;28;20481;-89
2022/05/13 07:00:26;;;;;;;8.87;5.43;;;19.40;99.90;;;;;;5024363;28;20447;-89
2022/05/13 07:02:53;;;;;;;10.97;7.07;;;19.30;99.90;;;;;;5024878;28;20511;-88
2022/05/13 07:05:21;;;;;;;9.77;6.27;;;19.20;99.90;;;;;;5017534;28;20470;-89
2022/05/13 07:07:48;;;;;;;8.27;5.67;;;19.00;99.90;;;;;;5031175;28;20470;-87
2022/05/13 07:10:16;;;;;;;10.63;5.57;;;19.10;99.90;;;;;;5036331;28;20443;-87
2022/05/13 07:12:45;;;;;;;10.10;6.10;;;19.00;99.90;;;;;;5025920;28;20446;-89
2022/05/13 07:15:15;;;;;;;12.90;6.60;;;19.00;99.90;;;;;;5022904;28;20489;-88
2022/05/13 07:17:44;;;;;;;10.60;5.33;;;19.00;99.90;;;;;;5016812;28;20459;-88
2022/05/13 07:20:13;;;;;;;11.00;6.57;;;19.00;99.90;;;;;;5016103;28;20413;-87
2022/05/13 07:22:41;;;;;;;11.23;5.37;;;18.90;99.90;;;;;;5016135;28;20482;-87
2022/05/13 07:25:09;;;;;;;8.60;5.90;;;18.90;99.90;;;;;;5028872;28;20546;-87
2022/05/13 07:27:36;;;;;;;11.73;6.17;;;19.00;99.90;;;;;;5022151;28;20510;-87
2022/05/13 07:30:05;;;;;;;11.80;5.20;;;19.00;99.90;;;;;;5019473;28;20439;-87
2022/05/13 07:32:32;;;;;;;7.10;5.60;;;19.10;99.90;;;;;;5019109;28;20473;-87
2022/05/13 07:35:01;;;;;;;9.77;6.00;;;19.20;99.90;;;;;;5020951;28;20481;-86
2022/05/13 07:37:28;;;;;;;9.87;5.87;;;19.20;99.90;;;;;;5016910;28;20506;-87
2022/05/13 07:42:43;;;;;;;11.50;6.00;;;19.10;99.90;;;;;;5017389;28;20417;-87
2022/05/13 07:45:11;;;;;;;9.23;6.00;;;19.00;99.90;;;;;;5015303;28;20493;-88
2022/05/13 07:47:39;;;;;;;8.73;4.17;;;19.30;99.90;;;;;;5017027;28;20508;-89
2022/05/13 07:50:18;;;;;;;11.63;5.37;;;19.30;99.90;;;;;;5015140;28;20509;-88
2022/05/13 07:52:51;;;;;;;7.40;5.13;;;19.10;99.90;;;;;;5016484;28;20880;-89
2022/05/13 07:55:19;;;;;;;8.03;4.53;;;19.30;99.90;;;;;;5018589;28;20505;-88
2022/05/13 07:57:49;;;;;;;6.87;4.57;;;19.30;99.90;;;;;;5020922;28;20564;-88
2022/05/13 08:00:26;;;;;;;10.20;4.80;;;19.30;99.90;;;;;;5022340;28;20421;-88
2022/05/13 08:02:58;;;;;;;12.73;5.00;;;19.50;99.90;;;;;;5021951;28;20436;-87
2022/05/13 08:08:04;;;;;;;7.47;3.77;;;19.50;99.90;;;;;;4981599;28;20480;-88
2022/05/13 08:10:39;;;;;;;8.30;3.77;;;19.60;99.90;;;;;;4989137;28;20451;-87
2022/05/13 08:13:11;;;;;;;7.47;4.03;;;19.70;99.90;;;;;;4997297;28;20436;-88
2022/05/13 08:15:38;;;;;;;8.97;4.70;;;19.70;99.90;;;;;;5000727;28;20429;-84
2022/05/13 08:18:07;;;;;;;9.20;3.63;;;19.60;99.90;;;;;;5000183;28;20474;-89
2022/05/13 08:20:36;;;;;;;11.33;4.80;;;19.70;99.90;;;;;;4994881;28;20444;-87
2022/05/13 08:23:09;;;;;;;9.97;4.93;;;19.70;99.90;;;;;;4996466;28;20436;-86
2022/05/13 08:25:55;;;;;;;8.20;4.50;;;19.80;99.90;;;;;;4995864;28;20452;-88
2022/05/13 08:28:24;;;;;;;7.37;4.07;;;19.80;99.90;;;;;;4997751;28;20450;-88
2022/05/13 08:30:52;;;;;;;11.10;3.90;;;20.00;99.90;;;;;;4992054;28;20460;-88
2022/05/13 08:33:20;;;;;;;7.60;2.90;;;20.30;99.90;;;;;;4984399;28;20519;-89
2022/05/13 08:36:06;;;;;;;7.47;3.30;;;20.50;99.90;;;;;;4982479;28;20472;-88
2022/05/13 08:38:40;;;;;;;15.00;3.80;;;20.60;99.90;;;;;;4985754;28;20472;-88
2022/05/13 08:41:24;;;;;;;7.37;3.67;;;20.70;99.90;;;;;;4983975;28;20451;-89
2022/05/13 08:43:57;;;;;;;8.80;3.63;;;20.70;99.90;;;;;;4982921;28;20487;-88
2022/05/13 08:46:40;;;;;;;7.90;3.40;;;20.70;99.90;;;;;;4981477;28;20484;-88
2022/05/13 08:49:27;;;;;;;8.00;3.80;;;20.70;99.90;;;;;;4982406;28;20460;-87
2022/05/13 08:53:06;;;;;;;8.03;3.77;;;20.50;99.90;;;;;;4983594;28;20432;-87
2022/05/13 08:55:39;;;;;;;9.30;3.60;;;20.50;99.90;;;;;;4986310;28;20456;-88
2022/05/13 08:58:13;;;;;;;6.77;2.87;;;20.40;99.90;;;;;;4981365;28;20822;-88
2022/05/13 09:00:50;;;;;;;12.10;3.43;;;20.30;99.90;;;;;;4981694;28;20957;-88
2022/05/13 09:03:37;;;;;;;9.53;3.03;;;20.20;99.90;;;;;;4984502;28;20515;-87
2022/05/13 09:06:21;;;;;;;9.57;3.20;;;20.20;99.90;;;;;;4981990;28;20491;-87
2022/05/13 09:08:48;;;;;;;10.83;3.30;;;20.30;99.90;;;;;;4981832;28;20471;-87
2022/05/13 09:11:30;;;;;;;10.97;3.20;;;20.40;99.90;;;;;;4987510;28;20460;-89
2022/05/13 09:14:09;;;;;;;9.73;3.10;;;20.50;99.90;;;;;;4997988;28;20441;-88
2022/05/13 09:16:56;;;;;;;9.60;3.50;;;20.50;99.90;;;;;;4989195;28;20516;-88
2022/05/13 09:19:37;;;;;;;6.07;2.57;;;20.50;99.90;;;;;;4986098;28;20575;-88
2022/05/13 09:22:06;;;;;;;8.53;3.30;;;20.40;99.90;;;;;;4995365;28;20432;-89
2022/05/13 09:24:35;;;;;;;9.17;3.27;;;20.40;99.90;;;;;;4998053;28;20512;-87
2022/05/13 09:27:05;;;;;;;8.93;3.07;;;20.40;99.90;;;;;;4984857;28;20484;-87
2022/05/13 09:29:39;;;;;;;7.80;3.00;;;20.50;99.90;;;;;;4982792;28;20456;-87
2022/05/13 09:32:42;;;;;;;9.37;3.00;;;20.50;99.90;;;;;;4983630;28;20530;-87
2022/05/13 09:42:47;;;;;;;8.70;3.10;;;20.30;99.90;;;;;;4909664;29;20432;-87
2022/05/13 09:45:34;;;;;;;6.50;2.43;;;20.40;99.90;;;;;;4905823;29;20459;-89
2022/05/13 09:48:23;;;;;;;11.23;4.13;;;20.40;99.90;;;;;;4913612;29;20634;-88
2022/05/13 10:26:26;;;;;;;5.77;3.03;;;21.70;97.70;;;;;;5027630;28;20493;-89
2022/05/13 10:29:24;;;;;;;8.50;3.90;;;21.80;97.50;;;;;;5042812;28;20449;-90
2022/05/13 10:32:08;;;;;;;7.63;3.60;;;21.90;97.60;;;;;;5046414;28;20450;-90
2022/05/13 10:38:05;;;;;;;;;;;;;;;;;;;;;
2022/05/13 10:40:43;;;;;;;8.23;3.50;;;21.80;98.00;;;;;;5051961;28;20473;-90
2022/05/13 10:43:37;;;;;;;5.63;3.17;;;22.00;98.10;;;;;;5042617;28;20445;-91
2022/05/13 10:46:31;;;;;;;6.83;4.10;;;21.50;98.10;;;;;;5038882;28;20474;-88
2022/05/13 10:49:20;;;;;;;7.63;3.40;;;21.20;98.90;;;;;;5046439;28;20812;-90
2022/05/13 10:52:02;;;;;;;6.20;3.50;;;21.20;99.70;;;;;;5044071;28;20437;-89
2022/05/13 10:54:49;;;;;;;7.47;3.40;;;21.30;99.40;;;;;;5040136;28;20544;-89
2022/05/13 10:57:47;;;;;;;9.00;3.50;;;21.20;99.00;;;;;;5048689;28;20481;-88
2022/05/13 11:00:43;;;;;;;7.50;3.37;;;21.30;99.40;;;;;;5041101;28;20469;-87
2022/05/13 11:03:46;;;;;;;7.20;3.23;;;21.40;99.70;;;;;;5037642;28;20461;-88
2022/05/13 11:09:45;;;;;;;10.80;5.90;;;21.50;99.40;;;;;;4981202;28;20440;-87
2022/05/13 11:12:52;;;;;;;11.60;3.80;;;21.50;99.50;;;;;;5043675;28;20478;-87
2022/05/13 11:15:53;;;;;;;8.10;3.57;;;21.70;99.40;;;;;;5042226;28;20492;-88
2022/05/13 11:19:02;;;;;;;8.10;4.50;;;21.70;99.30;;;;;;5042253;28;20474;-87
2022/05/13 11:21:42;;;;;;;7.20;3.80;;;21.60;99.30;;;;;;5053138;28;20460;-87
2022/05/13 11:27:29;;;;;;;6.77;3.40;;;21.80;99.30;;;;;;5050010;28;20460;-88
2022/05/13 11:30:10;;;;;;;9.03;3.70;;;22.00;98.20;;;;;;5057276;28;20515;-88
2022/05/13 11:33:03;;;;;;;6.00;3.77;;;21.90;98.10;;;;;;5059494;28;20496;-89
2022/05/13 11:35:59;;;;;;;6.60;4.33;;;21.90;97.90;;;;;;5046326;28;20473;-88
2022/05/13 11:39:04;;;;;;;7.20;4.40;;;21.90;98.40;;;;;;5046783;28;20477;-88
2022/05/13 11:44:33;;;;;;;9.40;5.20;;;21.60;99.20;;;;;;5051433;28;20416;-88
2022/05/13 11:47:08;;;;;;;6.10;3.83;;;21.80;98.70;;;;;;5050309;28;20489;-88
2022/05/13 11:49:38;;;;;;;10.27;4.83;;;22.00;98.00;;;;;;5052411;28;20437;-88
2022/05/13 11:52:46;;;;;;;7.30;3.23;;;22.10;98.00;;;;;;5046619;28;20424;-88
2022/05/13 11:55:17;;;;;;;9.47;3.80;;;22.10;98.00;;;;;;5045194;28;20491;-88
2022/05/13 11:57:53;;;;;;;9.43;4.07;;;22.10;98.20;;;;;;5046279;28;20450;-88
2022/05/13 12:00:27;;;;;;;11.63;4.10;;;22.20;98.30;;;;;;5042310;28;20473;-89
2022/05/13 12:06:05;;;;;;;10.00;3.73;;;22.50;97.10;;;;;;5057493;28;20493;-88
2022/05/13 12:08:46;;;;;;;7.10;3.53;;;22.70;96.80;;;;;;5058570;28;20510;-88
2022/05/13 12:11:51;;;;;;;6.57;3.57;;;22.80;96.80;;;;;;5050170;28;20461;-88
2022/05/13 12:14:28;;;;;;;7.80;3.73;;;22.80;97.40;;;;;;5003721;28;20518;-88
2022/05/13 12:17:12;;;;;;;6.40;3.93;;;22.70;97.50;;;;;;5042850;28;20481;-88
2022/05/13 12:19:50;;;;;;;8.50;4.33;;;22.70;96.90;;;;;;5049704;28;20536;-87
2022/05/13 12:22:37;;;;;;;9.57;4.40;;;22.60;96.90;;;;;;5046400;28;20437;-87
2022/05/13 12:25:08;;;;;;;8.80;3.47;;;22.70;96.90;;;;;;5044786;28;20472;-88
2022/05/13 12:27:44;;;;;;;8.23;3.90;;;22.20;98.30;;;;;;5048776;28;20477;-88
2022/05/13 12:30:33;;;;;;;14.03;9.77;;;22.00;98.20;;;;;;5046285;28;20457;-88
2022/05/13 12:33:34;;;;;;;8.13;4.30;;;21.90;98.20;;;;;;5052505;28;20512;-88
2022/05/13 12:39:13;;;;;;;6.60;3.83;;;22.40;98.60;;;;;;5045924;28;20490;-88
2022/05/13 12:42:02;;;;;;;11.23;4.50;;;22.50;97.50;;;;;;5043562;28;20422;-88
2022/05/13 12:47:34;;;;;;;6.07;3.30;;;22.70;96.30;;;;;;5042248;28;20473;-86
2022/05/13 12:50:21;;;;;;;6.17;4.10;;;22.70;96.20;;;;;;5043106;28;20518;-88
2022/05/13 12:52:49;;;;;;;9.00;4.20;;;22.60;96.70;;;;;;5042015;28;20445;-88
2022/05/13 12:55:20;;;;;;;4.73;3.17;;;22.80;96.40;;;;;;5043968;28;20456;-88
2022/05/13 12:57:55;;;;;;;5.80;3.77;;;22.80;95.00;;;;;;5042856;28;20792;-86
2022/05/13 13:00:36;;;;;;;8.93;4.67;;;22.70;95.50;;;;;;5041685;28;20425;-88
2022/05/13 13:03:09;;;;;;;7.60;3.77;;;22.60;96.00;;;;;;5045897;28;20480;-88
2022/05/13 13:05:42;;;;;;;7.87;3.93;;;22.40;96.70;;;;;;5041880;28;20480;-89
2022/05/13 13:08:14;;;;;;;9.13;3.50;;;22.40;96.40;;;;;;5040026;28;20457;-88
2022/05/13 13:11:08;;;;;;;6.83;3.63;;;22.20;97.30;;;;;;5041008;28;20512;-87
2022/05/13 13:13:46;;;;;;;6.60;4.07;;;22.30;96.60;;;;;;5040460;28;20460;-87
2022/05/13 13:16:31;;;;;;;6.57;3.60;;;22.50;96.00;;;;;;5042953;28;20857;-88
2022/05/13 13:19:18;;;;;;;9.83;4.20;;;22.30;95.60;;;;;;5042227;28;20474;-88
2022/05/13 13:21:49;;;;;;;6.53;4.00;;;22.30;96.30;;;;;;5041104;28;20427;-87
2022/05/13 13:24:25;;;;;;;8.30;4.60;;;22.30;96.30;;;;;;5040147;28;20503;-88
2022/05/13 13:27:07;;;;;;;9.37;3.77;;;22.50;96.00;;;;;;5050060;28;20497;-89
2022/05/13 13:29:43;;;;;;;6.30;3.70;;;22.60;95.00;;;;;;5051099;28;20489;-89
2022/05/13 13:32:22;;;;;;;7.63;3.73;;;22.90;94.40;;;;;;5041360;28;20806;-88
2022/05/13 13:37:47;;;;;;;11.63;3.47;;;23.30;93.00;;;;;;5043636;28;20474;-87
2022/05/13 13:40:41;;;;;;;5.43;3.40;;;23.40;92.70;;;;;;5041180;28;20530;-88
2022/05/13 13:43:19;;;;;;;5.70;3.47;;;23.50;91.60;;;;;;5042287;28;20480;-88
2022/05/13 13:45:52;;;;;;;4.93;2.80;;;23.30;91.30;;;;;;5039356;28;20477;-88
2022/05/13 13:48:27;;;;;;;6.70;3.17;;;23.20;91.10;;;;;;5039369;28;20584;-87
2022/05/13 13:50:57;;;;;;;9.73;2.90;;;23.00;91.40;;;;;;5037163;28;20544;-88
2022/05/13 13:53:33;;;;;;;5.40;2.73;;;22.90;91.70;;;;;;5038341;28;20544;-89
2022/05/13 13:56:10;;;;;;;6.40;3.43;;;23.00;91.50;;;;;;5042268;28;20480;-88
2022/05/13 13:58:49;;;;;;;11.90;3.57;;;23.10;90.10;;;;;;5042716;28;20564;-87
2022/05/13 14:01:21;;;;;;;5.30;2.80;;;23.30;89.20;;;;;;5040987;28;20498;-88
2022/05/13 14:03:49;;;;;;;8.03;3.13;;;23.60;88.30;;;;;;5040736;28;20449;-89
2022/05/13 14:09:31;;;;;;;5.30;2.60;;;23.90;86.20;;;;;;5031361;28;20438;-88
2022/05/13 14:12:10;;;;;;;5.73;3.20;;;23.50;86.60;;;;;;5025469;28;20457;-89
2022/05/13 14:14:48;;;;;;;6.10;3.33;;;23.50;87.20;;;;;;5029574;28;20458;-90
2022/05/13 14:17:31;;;;;;;4.77;2.60;;;23.30;86.00;;;;;;5025913;28;20498;-89
2022/05/13 14:20:34;;;;;;;7.47;3.67;;;23.10;88.20;;;;;;5019501;28;20478;-89
2022/05/13 14:23:24;;;;;;;7.60;2.60;;;23.40;87.50;;;;;;5017675;28;20462;-89
2022/05/13 14:25:56;;;;;;;4.23;2.60;;;23.50;84.90;;;;;;5018150;28;20538;-90
2022/05/13 14:28:30;;;;;;;6.60;2.73;;;23.50;85.80;;;;;;5018926;28;20450;-88
2022/05/13 14:31:05;;;;;;;6.10;2.73;;;23.80;84.70;;;;;;5016432;28;20527;-88
2022/05/13 14:33:38;;;;;;;8.50;3.20;;;24.30;83.60;;;;;;5018749;28;20442;-87
2022/05/13 14:36:07;;;;;;;6.00;2.90;;;24.60;80.30;;;;;;5018452;28;20486;-87
2022/05/13 14:41:38;;;;;;;5.27;2.80;;;24.90;77.80;;;;;;5018837;28;20533;-88
2022/05/13 14:44:07;;;;;;;5.90;2.77;;;24.10;78.80;;;;;;5017816;28;20445;-87
2022/05/13 14:46:35;;;;;;;6.73;2.63;;;24.20;79.30;;;;;;5018000;28;20506;-87
2022/05/13 14:49:38;;;;;;;7.37;3.00;;;24.60;79.00;;;;;;5028417;28;20498;-88
2022/05/13 14:52:09;;;;;;;4.63;2.40;;;24.90;78.10;;;;;;5018110;28;20502;-89
2022/05/13 14:54:42;;;;;;;5.97;2.63;;;24.90;76.90;;;;;;5017075;28;20789;-89
2022/05/13 14:57:12;;;;;;;5.73;2.70;;;25.10;76.60;;;;;;5016232;28;21014;-89